Time;durP1;ratioP1;P1;durP2;ratioP2;P2;SDS_P1;SDS_P2;PMS_P1;PMS_P2;Temp;Humidity;BMP_temperature;BMP_pressure;BME280_temperature;BME280_humidity;BME280_pressure;Samples;Min_cycle;Max_cycle;Signal;HPM_P1;HPM_P2
2021/04/04 00:00:43;;;;;;;2.50;0.70;;;14.40;75.50;;;;;;4793418;29;20039;-77
2021/04/04 00:03:10;;;;;;;3.63;0.98;;;14.40;75.60;;;;;;4780028;29;20169;-78
2021/04/04 00:05:39;;;;;;;1.55;0.70;;;14.30;76.10;;;;;;4793019;29;20213;-77
2021/04/04 00:08:07;;;;;;;1.67;0.55;;;14.30;76.20;;;;;;4779373;29;20039;-77
2021/04/04 00:10:35;;;;;;;3.22;1.17;;;14.30;76.40;;;;;;4775582;29;20043;-77
2021/04/04 00:13:03;;;;;;;4.18;0.80;;;14.30;76.60;;;;;;4780996;29;20134;-77
2021/04/04 00:15:30;;;;;;;1.60;0.60;;;14.30;76.80;;;;;;4790724;29;20052;-77
2021/04/04 00:17:58;;;;;;;1.40;0.40;;;14.20;77.00;;;;;;4791761;29;20063;-77
2021/04/04 00:20:26;;;;;;;1.85;0.65;;;14.30;77.20;;;;;;4793499;29;20050;-77
2021/04/04 00:22:54;;;;;;;2.45;0.90;;;14.40;77.40;;;;;;4790450;29;20074;-76
2021/04/04 00:25:22;;;;;;;3.22;0.55;;;14.30;77.40;;;;;;4797203;29;20043;-76
2021/04/04 00:27:49;;;;;;;2.70;0.93;;;14.30;77.80;;;;;;4776883;29;20053;-77
2021/04/04 00:30:19;;;;;;;1.38;0.60;;;14.30;78.00;;;;;;4786026;29;20121;-76
2021/04/04 00:32:47;;;;;;;2.35;0.70;;;14.30;78.30;;;;;;4792765;29;20051;-76
2021/04/04 00:35:17;;;;;;;4.18;0.98;;;14.30;78.20;;;;;;4789351;29;20122;-77
2021/04/04 00:37:45;;;;;;;1.38;0.70;;;14.30;78.60;;;;;;4789679;29;20075;-76
2021/04/04 00:40:16;;;;;;;2.95;0.80;;;14.30;78.70;;;;;;4779202;29;20053;-77
2021/04/04 00:42:43;;;;;;;1.38;0.55;;;14.30;78.80;;;;;;4777511;29;20039;-77
2021/04/04 00:45:14;;;;;;;2.25;0.70;;;14.30;79.00;;;;;;4792729;29;20051;-77
2021/04/04 00:47:41;;;;;;;3.67;0.90;;;14.30;79.10;;;;;;4790820;29;20055;-76
2021/04/04 00:50:10;;;;;;;2.78;0.60;;;14.30;79.20;;;;;;4790437;29;20051;-76
2021/04/04 00:52:40;;;;;;;3.33;0.90;;;14.30;79.40;;;;;;4796893;29;20055;-77
2021/04/04 00:55:10;;;;;;;2.63;0.80;;;14.30;79.50;;;;;;4777970;29;20525;-76
2021/04/04 00:57:40;;;;;;;2.28;0.75;;;14.20;79.60;;;;;;4794905;29;20074;-76
2021/04/04 01:00:10;;;;;;;1.55;0.63;;;14.10;79.90;;;;;;4778982;29;20059;-77
2021/04/04 01:02:38;;;;;;;2.10;0.60;;;14.20;80.00;;;;;;4774716;29;20051;-76
2021/04/04 01:05:08;;;;;;;1.58;0.60;;;14.20;79.90;;;;;;4791793;29;20054;-76
2021/04/04 01:07:36;;;;;;;3.10;0.70;;;14.40;79.70;;;;;;4778921;29;20493;-76
2021/04/04 01:10:07;;;;;;;3.65;0.95;;;14.40;79.80;;;;;;4778824;29;20158;-76
2021/04/04 01:12:45;;;;;;;3.63;1.00;;;14.30;80.00;;;;;;4779977;29;20043;-77
2021/04/04 01:15:16;;;;;;;3.42;0.90;;;14.20;80.10;;;;;;4798015;29;20043;-77
2021/04/04 01:17:46;;;;;;;3.13;0.85;;;14.20;80.50;;;;;;4792089;29;20058;-77
2021/04/04 01:20:18;;;;;;;4.57;1.00;;;14.30;80.30;;;;;;4777070;29;20189;-77
2021/04/04 01:23:21;;;;;;;2.28;0.68;;;14.30;80.20;;;;;;4790574;29;20054;-76
2021/04/04 01:25:57;;;;;;;2.28;0.50;;;14.30;80.10;;;;;;4777375;29;20096;-77
2021/04/04 01:28:29;;;;;;;1.38;0.60;;;14.20;80.10;;;;;;4776728;29;20060;-76
2021/04/04 01:30:59;;;;;;;2.83;0.60;;;14.10;80.40;;;;;;4791794;29;20161;-76
2021/04/04 01:33:32;;;;;;;5.05;0.60;;;14.00;80.60;;;;;;4797232;29;20142;-77
2021/04/04 01:36:01;;;;;;;1.63;0.55;;;14.00;80.70;;;;;;4788435;29;20050;-76
2021/04/04 01:38:33;;;;;;;3.80;0.70;;;13.90;80.90;;;;;;4776828;29;20565;-77
2021/04/04 01:41:06;;;;;;;3.28;0.90;;;13.80;81.30;;;;;;4776139;29;20061;-76
2021/04/04 01:43:36;;;;;;;2.20;1.05;;;13.90;81.20;;;;;;4781091;29;20569;-76
2021/04/04 01:46:04;;;;;;;3.35;0.70;;;13.80;81.40;;;;;;4777683;29;20136;-76
2021/04/04 01:48:33;;;;;;;2.38;0.82;;;13.70;81.60;;;;;;4778325;29;20062;-76
2021/04/04 01:51:02;;;;;;;1.23;0.55;;;13.70;81.60;;;;;;4777015;29;20105;-76
2021/04/04 01:53:31;;;;;;;3.15;0.82;;;13.70;81.70;;;;;;4775325;29;20043;-76
2021/04/04 01:55:59;;;;;;;2.00;0.55;;;13.70;81.70;;;;;;4779911;29;20047;-76
2021/04/04 01:58:28;;;;;;;2.67;0.50;;;13.60;81.80;;;;;;4780812;29;20152;-77
2021/04/04 02:00:58;;;;;;;3.55;0.60;;;13.60;82.10;;;;;;4792036;29;20138;-76
2021/04/04 02:03:26;;;;;;;2.95;0.70;;;13.70;82.20;;;;;;4793196;29;20405;-77
2021/04/04 02:05:54;;;;;;;2.17;0.63;;;13.60;82.30;;;;;;4778640;29;20042;-76
2021/04/04 02:08:23;;;;;;;1.98;0.68;;;13.70;82.40;;;;;;4781567;29;20154;-77
2021/04/04 02:10:52;;;;;;;1.60;1.20;;;13.60;82.30;;;;;;4780317;29;20134;-77
2021/04/04 02:13:20;;;;;;;2.47;0.75;;;13.60;82.30;;;;;;4792359;29;20537;-76
2021/04/04 02:15:48;;;;;;;1.73;0.40;;;13.70;82.40;;;;;;4779573;29;20430;-77
2021/04/04 02:18:17;;;;;;;3.38;0.80;;;13.60;82.30;;;;;;4781909;29;20117;-76
2021/04/04 02:20:47;;;;;;;1.95;0.43;;;13.50;82.70;;;;;;4780224;29;20047;-77
2021/04/04 02:23:15;;;;;;;2.92;0.82;;;13.60;82.80;;;;;;4782388;29;20043;-76
2021/04/04 02:25:43;;;;;;;1.65;0.60;;;13.60;82.70;;;;;;4784803;29;20050;-76
2021/04/04 02:28:11;;;;;;;1.77;0.60;;;13.70;82.70;;;;;;4778003;29;20058;-76
2021/04/04 02:30:38;;;;;;;3.85;0.93;;;13.70;82.30;;;;;;4792124;29;20055;-76
2021/04/04 02:33:12;;;;;;;2.28;0.57;;;13.80;82.30;;;;;;4778681;29;20063;-76
2021/04/04 02:35:42;;;;;;;1.50;0.52;;;13.80;82.30;;;;;;4797642;29;20393;-76
2021/04/04 02:38:13;;;;;;;2.15;0.60;;;13.80;82.60;;;;;;4779261;29;20425;-77
2021/04/04 02:40:43;;;;;;;1.80;0.63;;;13.70;82.70;;;;;;4791413;29;20047;-76
2021/04/04 02:43:15;;;;;;;1.27;0.50;;;13.70;82.80;;;;;;4779983;29;20391;-77
2021/04/04 02:45:44;;;;;;;1.95;0.50;;;13.80;82.60;;;;;;4793974;29;20040;-76
2021/04/04 02:48:16;;;;;;;3.08;0.73;;;13.80;82.80;;;;;;4776531;29;21016;-76
2021/04/04 02:50:47;;;;;;;2.78;0.52;;;13.60;82.90;;;;;;4797046;29;20035;-76
2021/04/04 02:53:17;;;;;;;1.75;0.60;;;13.60;83.10;;;;;;4779425;29;20043;-76
2021/04/04 02:55:47;;;;;;;2.05;0.70;;;13.60;82.90;;;;;;4775625;29;20046;-76
2021/04/04 02:58:17;;;;;;;3.33;1.05;;;13.60;83.20;;;;;;4778537;29;20502;-77
2021/04/04 03:00:45;;;;;;;3.40;1.02;;;13.80;83.00;;;;;;4779063;29;20520;-76
2021/04/04 03:03:16;;;;;;;1.23;0.98;;;13.70;83.00;;;;;;4795432;29;20402;-76
2021/04/04 03:05:46;;;;;;;2.55;0.70;;;13.60;83.00;;;;;;4781109;29;20051;-76
2021/04/04 03:08:15;;;;;;;2.15;0.65;;;13.10;83.70;;;;;;4792268;29;20074;-76
2021/04/04 03:10:50;;;;;;;1.98;1.00;;;13.10;84.00;;;;;;4778203;29;20040;-76
2021/04/04 03:13:20;;;;;;;3.17;0.65;;;12.90;84.50;;;;;;4792733;29;20051;-76
2021/04/04 03:15:49;;;;;;;1.70;0.90;;;13.30;84.40;;;;;;4775090;29;20082;-77
2021/04/04 03:18:18;;;;;;;1.27;0.55;;;13.60;83.50;;;;;;4779858;29;20071;-76
2021/04/04 03:20:48;;;;;;;2.33;0.70;;;13.60;83.40;;;;;;4791945;29;20100;-76
2021/04/04 03:23:17;;;;;;;2.13;0.98;;;13.50;83.20;;;;;;4788893;29;20547;-76
2021/04/04 03:25:46;;;;;;;1.75;0.60;;;13.40;83.80;;;;;;4780763;29;20476;-76
2021/04/04 03:28:16;;;;;;;3.22;0.70;;;13.40;83.80;;;;;;4783848;29;20055;-76
2021/04/04 03:30:46;;;;;;;1.55;0.50;;;13.50;83.50;;;;;;4781776;29;20043;-76
2021/04/04 03:33:17;;;;;;;1.77;0.60;;;13.50;83.60;;;;;;4780683;29;20350;-76
2021/04/04 03:35:48;;;;;;;3.50;0.65;;;13.50;83.80;;;;;;4775507;29;20162;-77
2021/04/04 03:38:17;;;;;;;2.95;0.50;;;13.40;83.80;;;;;;4792240;29;20050;-76
2021/04/04 03:40:45;;;;;;;2.30;0.63;;;13.30;83.80;;;;;;4793038;29;20039;-76
2021/04/04 03:43:16;;;;;;;3.15;0.70;;;13.20;83.60;;;;;;4783294;29;20047;-77
2021/04/04 03:45:46;;;;;;;2.65;0.57;;;13.20;83.70;;;;;;4782047;29;20101;-76
2021/04/04 03:48:13;;;;;;;2.33;0.50;;;13.30;83.50;;;;;;4813104;24;20067;-77
2021/04/04 03:50:45;;;;;;;2.78;0.65;;;13.20;83.60;;;;;;4776143;29;20058;-77
2021/04/04 03:53:17;;;;;;;3.13;0.55;;;13.20;83.60;;;;;;4789291;29;20520;-77
2021/04/04 03:55:51;;;;;;;3.20;0.70;;;13.20;83.60;;;;;;4778052;29;20052;-76
2021/04/04 03:58:20;;;;;;;3.55;0.88;;;13.10;83.40;;;;;;4774064;29;20478;-77
2021/04/04 04:00:50;;;;;;;6.88;0.93;;;13.00;83.70;;;;;;4788470;29;20542;-77
2021/04/04 04:03:19;;;;;;;3.78;0.90;;;13.10;83.60;;;;;;4778121;29;20486;-77
2021/04/04 04:05:48;;;;;;;3.42;0.70;;;13.20;83.60;;;;;;4776640;29;20043;-77
2021/04/04 04:08:17;;;;;;;2.42;0.80;;;13.20;83.30;;;;;;4782471;29;20075;-77
2021/04/04 04:10:46;;;;;;;12.57;1.95;;;13.30;83.10;;;;;;4777846;29;20051;-76
2021/04/04 04:13:15;;;;;;;1.73;0.40;;;13.30;82.90;;;;;;4769024;30;20058;-77
2021/04/04 04:15:42;;;;;;;4.15;0.70;;;13.20;83.00;;;;;;4761799;30;20170;-76
2021/04/04 04:18:11;;;;;;;3.05;0.60;;;13.20;83.00;;;;;;4777488;29;20047;-77
2021/04/04 04:20:40;;;;;;;3.15;0.73;;;13.20;82.70;;;;;;4777572;29;20050;-77
2021/04/04 04:23:08;;;;;;;4.55;1.25;;;13.10;82.80;;;;;;4775185;29;20516;-78
2021/04/04 04:25:38;;;;;;;2.17;0.75;;;13.10;82.70;;;;;;4776828;29;20055;-77
2021/04/04 04:28:08;;;;;;;4.13;0.70;;;13.00;82.80;;;;;;4774192;29;20790;-77
2021/04/04 04:30:37;;;;;;;1.80;0.90;;;13.10;82.80;;;;;;4774014;29;20124;-77
2021/04/04 04:33:07;;;;;;;2.00;0.60;;;13.00;82.90;;;;;;4777713;30;20591;-77
2021/04/04 04:35:38;;;;;;;2.72;0.75;;;12.90;83.00;;;;;;4790211;29;20601;-77
2021/04/04 04:38:08;;;;;;;2.28;0.73;;;12.80;83.20;;;;;;4772587;29;20055;-76
2021/04/04 04:40:37;;;;;;;2.50;0.80;;;12.80;83.40;;;;;;4788759;29;20138;-77
2021/04/04 04:43:08;;;;;;;2.38;0.55;;;12.80;83.30;;;;;;4775444;29;20062;-77
2021/04/04 04:45:39;;;;;;;4.43;0.77;;;12.70;83.60;;;;;;4776136;29;20062;-76
2021/04/04 04:48:08;;;;;;;5.28;0.77;;;12.70;83.70;;;;;;4784362;29;20169;-76
2021/04/04 04:50:36;;;;;;;1.27;0.70;;;12.80;83.70;;;;;;4791923;29;20498;-77
2021/04/04 04:53:04;;;;;;;2.53;0.57;;;12.80;83.50;;;;;;4791066;29;20051;-76
2021/04/04 04:55:33;;;;;;;2.55;0.73;;;12.80;83.40;;;;;;4794834;29;20054;-77
2021/04/04 04:58:05;;;;;;;2.05;0.75;;;12.70;83.40;;;;;;4788364;29;20096;-77
2021/04/04 05:00:34;;;;;;;2.17;0.70;;;12.70;83.50;;;;;;4795986;29;20418;-77
2021/04/04 05:03:02;;;;;;;3.25;0.73;;;12.70;83.70;;;;;;4794264;29;20065;-77
2021/04/04 05:05:30;;;;;;;3.15;0.93;;;12.70;83.60;;;;;;4790405;29;20047;-77
2021/04/04 05:07:58;;;;;;;2.80;0.73;;;12.70;83.70;;;;;;4807689;29;20051;-77
2021/04/04 05:10:28;;;;;;;4.45;0.63;;;12.70;83.70;;;;;;4796725;29;20153;-78
2021/04/04 05:12:58;;;;;;;2.97;0.52;;;12.70;83.70;;;;;;4795449;29;20049;-76
2021/04/04 05:15:27;;;;;;;2.60;0.60;;;12.70;83.70;;;;;;4793048;29;20046;-76
2021/04/04 05:17:54;;;;;;;2.25;0.52;;;12.70;83.90;;;;;;4793408;29;20767;-77
2021/04/04 05:20:22;;;;;;;2.03;0.80;;;12.80;83.70;;;;;;4800380;29;20399;-77
2021/04/04 05:22:50;;;;;;;1.85;0.88;;;12.80;83.70;;;;;;4808083;29;20050;-76
2021/04/04 05:25:17;;;;;;;3.88;0.63;;;12.80;83.60;;;;;;4794382;29;20397;-77
2021/04/04 05:27:45;;;;;;;1.88;0.40;;;12.80;83.70;;;;;;4795636;29;20506;-77
2021/04/04 05:30:13;;;;;;;1.92;0.50;;;12.80;83.70;;;;;;4792208;29;20078;-77
2021/04/04 05:32:47;;;;;;;1.73;0.80;;;12.90;83.80;;;;;;4794347;29;20103;-77
2021/04/04 05:35:19;;;;;;;1.25;0.40;;;12.90;83.80;;;;;;4805921;29;20509;-77
2021/04/04 05:37:50;;;;;;;2.08;0.43;;;12.90;83.80;;;;;;4806787;29;20422;-77
2021/04/04 05:40:21;;;;;;;0.95;0.43;;;13.00;83.70;;;;;;4807379;29;20139;-77
2021/04/04 05:42:52;;;;;;;1.30;0.80;;;13.00;83.50;;;;;;4800745;29;20509;-76
2021/04/04 05:45:24;;;;;;;2.05;0.60;;;13.00;83.30;;;;;;4796903;29;20054;-77
2021/04/04 05:48:03;;;;;;;3.25;0.50;;;13.10;83.20;;;;;;4801289;29;20061;-77
2021/04/04 05:50:44;;;;;;;2.40;0.60;;;13.10;83.10;;;;;;4810529;29;20039;-76
2021/04/04 05:53:21;;;;;;;2.03;0.95;;;13.10;83.00;;;;;;4805207;29;20137;-77
2021/04/04 05:55:56;;;;;;;2.65;0.77;;;13.10;83.00;;;;;;4796241;29;20536;-78
2021/04/04 05:58:31;;;;;;;5.18;0.63;;;13.10;82.90;;;;;;4797048;29;20046;-77
2021/04/04 06:01:19;;;;;;;1.88;0.68;;;13.20;82.80;;;;;;4792449;29;20059;-76
2021/04/04 06:04:07;;;;;;;;;;;13.20;82.50;;;;;;4808504;29;20130;-76
2021/04/04 06:06:55;;;;;;;2.97;0.70;;;13.20;82.40;;;;;;4792502;29;19933;-77
2021/04/04 06:09:39;;;;;;;2.25;0.60;;;13.20;82.60;;;;;;4796386;29;20042;-77
2021/04/04 06:12:18;;;;;;;2.17;0.55;;;13.30;82.60;;;;;;4795561;29;20047;-77
2021/04/04 06:15:05;;;;;;;1.75;0.82;;;13.20;82.60;;;;;;4796863;29;20412;-77
2021/04/04 06:17:37;;;;;;;2.38;0.68;;;13.30;82.70;;;;;;4797623;29;20047;-78
2021/04/04 06:20:14;;;;;;;2.42;0.82;;;13.40;82.70;;;;;;4809834;29;20544;-77
2021/04/04 06:22:53;;;;;;;2.28;0.63;;;13.40;82.60;;;;;;4812074;29;20351;-77
2021/04/04 06:25:34;;;;;;;3.47;0.50;;;13.40;82.50;;;;;;4784980;29;20051;-77
2021/04/04 06:28:09;;;;;;;1.38;0.43;;;13.40;82.50;;;;;;4803162;29;20059;-77
2021/04/04 06:30:49;;;;;;;3.30;0.80;;;13.40;82.60;;;;;;4797365;29;20107;-77
2021/04/04 06:33:22;;;;;;;1.95;0.73;;;13.40;82.50;;;;;;4793297;29;20069;-77
2021/04/04 06:36:02;;;;;;;1.75;0.52;;;13.50;82.40;;;;;;4796214;29;20456;-77
2021/04/04 06:39:04;;;;;;;5.05;0.73;;;13.50;82.20;;;;;;4794824;29;20828;-77
2021/04/04 06:41:52;;;;;;;2.85;0.50;;;13.60;82.10;;;;;;4803337;29;20051;-77
2021/04/04 06:44:37;;;;;;;2.28;0.82;;;13.60;81.70;;;;;;4782383;29;20058;-77
2021/04/04 06:47:14;;;;;;;2.95;0.70;;;13.50;81.80;;;;;;4795678;29;20472;-77
2021/04/04 06:49:56;;;;;;;5.00;1.00;;;13.60;81.60;;;;;;4796779;29;20104;-77
2021/04/04 06:52:48;;;;;;;3.00;0.70;;;13.70;81.80;;;;;;4794749;29;20580;-77
2021/04/04 06:55:26;;;;;;;2.38;0.50;;;13.80;81.20;;;;;;4794980;29;20183;-77
2021/04/04 06:58:18;;;;;;;2.53;0.73;;;13.70;81.20;;;;;;4792931;29;20051;-77
2021/04/04 07:00:58;;;;;;;3.70;0.90;;;13.70;80.80;;;;;;4796471;29;20446;-77
2021/04/04 07:03:29;;;;;;;2.55;0.50;;;13.80;80.90;;;;;;4794422;29;20502;-76
2021/04/04 07:06:04;;;;;;;4.78;0.77;;;13.80;81.00;;;;;;4798399;29;20513;-77
2021/04/04 07:09:00;;;;;;;3.78;1.08;;;13.80;80.90;;;;;;4796494;29;20043;-77
2021/04/04 07:11:36;;;;;;;3.50;0.75;;;13.80;80.30;;;;;;4796596;29;20130;-77
2021/04/04 07:14:31;;;;;;;1.95;0.65;;;13.80;80.40;;;;;;4795655;29;20498;-77
2021/04/04 07:17:22;;;;;;;2.83;0.70;;;13.90;80.20;;;;;;4793837;29;20141;-77
2021/04/04 07:20:18;;;;;;;2.60;0.80;;;13.90;80.00;;;;;;4797405;29;20107;-77
2021/04/04 07:23:15;;;;;;;1.60;0.70;;;13.90;79.80;;;;;;4790381;29;20613;-76
2021/04/04 07:25:52;;;;;;;3.35;0.82;;;13.90;79.40;;;;;;4800745;29;20507;-77
2021/04/04 07:28:49;;;;;;;1.95;0.55;;;14.00;79.50;;;;;;4800708;29;20054;-76
2021/04/04 07:31:25;;;;;;;0.95;0.40;;;14.00;79.00;;;;;;4810647;29;20115;-77
2021/04/04 07:34:04;;;;;;;3.38;0.50;;;14.00;79.10;;;;;;4794956;29;20051;-76
2021/04/04 07:36:40;;;;;;;2.97;0.80;;;14.10;79.10;;;;;;4794705;29;20149;-78
2021/04/04 07:39:12;;;;;;;;;;;14.20;78.90;;;;;;4801709;29;20054;-80
2021/04/04 07:41:50;;;;;;;1.25;0.60;;;14.30;78.30;;;;;;4795064;29;20045;-77
2021/04/04 07:44:23;;;;;;;2.47;1.05;;;14.30;77.80;;;;;;4792240;29;20112;-78
2021/04/04 07:47:01;;;;;;;1.00;0.57;;;14.30;77.20;;;;;;4791326;29;20133;-77
2021/04/04 07:49:37;;;;;;;1.95;0.60;;;14.30;77.60;;;;;;4793294;29;20119;-79
2021/04/04 07:52:13;;;;;;;4.93;0.75;;;14.40;76.90;;;;;;4790922;29;20059;-75
2021/04/04 07:54:56;;;;;;;4.40;0.70;;;14.40;77.40;;;;;;4789422;29;20472;-76
2021/04/04 07:57:32;;;;;;;1.70;0.57;;;14.30;76.70;;;;;;4803240;29;20521;-77
2021/04/04 08:00:06;;;;;;;4.53;0.68;;;14.30;76.60;;;;;;4790337;29;20043;-76
2021/04/04 08:02:44;;;;;;;1.88;0.60;;;14.40;76.90;;;;;;4788585;29;20043;-75
2021/04/04 08:05:15;;;;;;;2.88;0.70;;;14.40;76.60;;;;;;4801667;29;20146;-75
2021/04/04 08:07:48;;;;;;;2.00;0.47;;;14.40;76.20;;;;;;4792278;29;20050;-75
2021/04/04 08:10:24;;;;;;;2.13;0.63;;;14.50;76.20;;;;;;4792712;29;20166;-75
2021/04/04 08:12:58;;;;;;;2.05;0.63;;;14.50;76.20;;;;;;4792704;29;20074;-74
2021/04/04 08:15:33;;;;;;;2.63;0.70;;;14.60;76.60;;;;;;4784273;29;20062;-73
2021/04/04 08:18:01;;;;;;;2.55;0.50;;;14.70;76.00;;;;;;4785673;29;20055;-76
2021/04/04 08:20:34;;;;;;;2.05;0.90;;;14.70;75.40;;;;;;4804063;29;20039;-79
2021/04/04 08:23:05;;;;;;;4.10;1.30;;;14.70;75.40;;;;;;4792197;29;20059;-77
2021/04/04 08:25:40;;;;;;;1.30;0.60;;;14.70;75.00;;;;;;4787168;29;21049;-76
2021/04/04 08:28:13;;;;;;;3.78;1.10;;;14.70;74.50;;;;;;4791903;29;20054;-78
2021/04/04 08:30:48;;;;;;;2.63;0.80;;;14.80;74.40;;;;;;4789522;29;20107;-77
2021/04/04 08:33:20;;;;;;;3.47;0.95;;;14.90;73.90;;;;;;4803381;29;20052;-75
2021/04/04 08:35:52;;;;;;;3.20;1.02;;;15.00;74.30;;;;;;4804506;29;20042;-79
2021/04/04 08:38:27;;;;;;;3.47;1.38;;;15.10;73.70;;;;;;4804971;29;20057;-76
2021/04/04 08:40:56;;;;;;;2.22;0.50;;;15.10;73.80;;;;;;4790120;29;20051;-76
2021/04/04 08:43:26;;;;;;;2.63;0.77;;;15.20;72.70;;;;;;4789957;29;20043;-75
2021/04/04 08:46:00;;;;;;;1.30;0.60;;;15.20;71.30;;;;;;4787319;29;20047;-74
2021/04/04 08:48:29;;;;;;;1.73;0.40;;;15.20;71.10;;;;;;4789543;29;20055;-75
2021/04/04 08:50:58;;;;;;;2.25;0.50;;;15.20;71.50;;;;;;4792104;29;20126;-74
2021/04/04 08:53:29;;;;;;;1.73;0.40;;;15.20;71.50;;;;;;4807878;29;20054;-75
2021/04/04 08:55:59;;;;;;;1.85;0.50;;;15.30;71.30;;;;;;4796501;29;20463;-75
2021/04/04 08:58:34;;;;;;;2.03;0.47;;;15.30;70.80;;;;;;4794184;29;20107;-75
2021/04/04 09:01:05;;;;;;;1.77;0.55;;;15.30;70.90;;;;;;4789726;29;20051;-76
2021/04/04 09:03:36;;;;;;;1.58;0.52;;;15.40;71.00;;;;;;4787226;29;20086;-74
2021/04/04 09:06:06;;;;;;;2.80;0.57;;;15.40;70.40;;;;;;4790473;29;20065;-76
2021/04/04 09:08:39;;;;;;;1.35;0.52;;;15.50;70.70;;;;;;4789826;29;20047;-76
2021/04/04 09:11:08;;;;;;;2.17;0.50;;;15.50;70.60;;;;;;4791937;29;20065;-76
2021/04/04 09:13:36;;;;;;;16.55;4.22;;;15.50;70.30;;;;;;4804484;29;20056;-76
2021/04/04 09:16:13;;;;;;;6.90;3.53;;;15.60;70.10;;;;;;4801358;29;20074;-78
2021/04/04 09:18:46;;;;;;;3.85;1.17;;;15.60;70.10;;;;;;4793453;29;20126;-75
2021/04/04 09:21:14;;;;;;;3.28;0.90;;;15.80;70.40;;;;;;4793411;29;20372;-75
2021/04/04 09:23:45;;;;;;;3.05;1.25;;;15.80;69.90;;;;;;4789288;29;20441;-75
2021/04/04 09:26:17;;;;;;;2.70;0.80;;;16.00;70.30;;;;;;4789123;29;20074;-76
2021/04/04 09:28:46;;;;;;;3.83;1.40;;;16.00;69.90;;;;;;4800128;29;20046;-77
2021/04/04 09:31:21;;;;;;;2.58;1.20;;;15.90;69.60;;;;;;4802015;29;20050;-76
2021/04/04 09:34:01;;;;;;;1.70;0.73;;;15.90;68.80;;;;;;4793639;29;20043;-75
2021/04/04 09:36:42;;;;;;;7.07;2.15;;;15.90;68.80;;;;;;4807181;29;20387;-75
2021/04/04 09:39:14;;;;;;;2.85;0.95;;;15.90;68.30;;;;;;4794987;29;20039;-76
2021/04/04 09:41:46;;;;;;;2.35;0.50;;;16.00;68.30;;;;;;4787449;29;20055;-76
2021/04/04 09:44:14;;;;;;;4.82;0.70;;;16.10;68.90;;;;;;4793082;29;20042;-77
2021/04/04 09:46:52;;;;;;;2.42;1.02;;;16.20;67.70;;;;;;4793468;29;20088;-78
2021/04/04 09:49:40;;;;;;;1.42;0.75;;;16.20;67.70;;;;;;4812884;29;20609;-77
2021/04/04 09:52:27;;;;;;;2.47;0.63;;;16.30;67.80;;;;;;4790540;29;20055;-77
2021/04/04 09:55:00;;;;;;;3.72;1.13;;;16.30;67.60;;;;;;4789848;29;20063;-76
2021/04/04 09:57:42;;;;;;;3.20;0.73;;;16.40;67.70;;;;;;4788791;29;20053;-77
2021/04/04 10:00:21;;;;;;;3.35;0.80;;;16.50;66.50;;;;;;4790090;29;20046;-77
2021/04/04 10:02:51;;;;;;;1.13;0.50;;;16.60;65.90;;;;;;4790121;29;20134;-84
2021/04/04 10:05:31;;;;;;;3.38;0.68;;;16.70;65.80;;;;;;4792175;29;20050;-79
2021/04/04 10:08:10;;;;;;;4.28;0.80;;;16.80;65.90;;;;;;4806031;29;20054;-79
2021/04/04 10:10:39;;;;;;;3.08;0.82;;;17.00;65.90;;;;;;4802365;29;20139;-77
2021/04/04 10:13:06;;;;;;;2.33;0.70;;;17.10;65.50;;;;;;4792829;29;20418;-79
2021/04/04 10:15:46;;;;;;;2.63;0.60;;;17.00;64.80;;;;;;4797068;29;20073;-79
2021/04/04 10:18:17;;;;;;;2.75;0.70;;;17.10;65.10;;;;;;4802388;29;20119;-77
2021/04/04 10:20:47;;;;;;;7.70;1.23;;;17.10;65.10;;;;;;4803064;29;20069;-78
2021/04/04 10:23:15;;;;;;;4.15;1.00;;;17.20;64.70;;;;;;4791139;29;20082;-78
2021/04/04 10:26:00;;;;;;;2.53;1.30;;;17.30;64.50;;;;;;4787453;29;20050;-78
2021/04/04 10:28:47;;;;;;;3.67;1.98;;;17.60;64.10;;;;;;4806198;29;20050;-79
2021/04/04 10:31:17;;;;;;;6.78;2.40;;;17.60;64.30;;;;;;4791093;29;20147;-79
2021/04/04 10:33:54;;;;;;;3.88;1.48;;;17.40;63.40;;;;;;4792773;29;20563;-78
2021/04/04 10:36:25;;;;;;;1.33;0.70;;;17.40;62.70;;;;;;4790663;29;20039;-79
2021/04/04 10:38:53;;;;;;;3.85;1.33;;;17.50;63.20;;;;;;4792790;29;20538;-78
2021/04/04 10:41:29;;;;;;;4.43;2.03;;;17.70;62.50;;;;;;4807693;29;20047;-78
2021/04/04 10:43:57;;;;;;;4.88;1.52;;;17.90;62.80;;;;;;4806386;29;20544;-77
2021/04/04 10:46:26;;;;;;;2.30;1.15;;;18.20;62.30;;;;;;4792702;29;20076;-79
2021/04/04 10:48:58;;;;;;;11.80;1.98;;;18.20;63.10;;;;;;4794359;29;20069;-79
2021/04/04 10:51:27;;;;;;;3.15;1.92;;;18.40;63.10;;;;;;4807394;29;20058;-79
2021/04/04 10:53:55;;;;;;;3.13;1.20;;;18.60;62.50;;;;;;4806356;29;20059;-79
2021/04/04 10:56:22;;;;;;;2.88;1.40;;;18.10;62.20;;;;;;4794873;29;20055;-79
2021/04/04 10:58:51;;;;;;;5.95;1.45;;;17.70;62.90;;;;;;4807928;29;20133;-79
2021/04/04 11:01:18;;;;;;;4.53;2.00;;;17.60;63.00;;;;;;4794778;29;20399;-79
2021/04/04 11:03:46;;;;;;;15.73;1.80;;;17.80;63.20;;;;;;4792469;29;20047;-79
2021/04/04 11:06:15;;;;;;;4.15;1.67;;;17.80;62.60;;;;;;4795961;29;20341;-79
2021/04/04 11:08:43;;;;;;;4.05;1.50;;;17.80;62.90;;;;;;4808073;29;20104;-78
2021/04/04 11:11:13;;;;;;;3.95;1.52;;;17.80;62.70;;;;;;4797560;29;20050;-79
2021/04/04 11:13:44;;;;;;;5.10;1.75;;;17.90;62.30;;;;;;4793721;29;20039;-79
2021/04/04 11:16:16;;;;;;;8.63;6.28;;;18.10;62.70;;;;;;4794924;29;20074;-79
2021/04/04 11:18:47;;;;;;;3.92;1.45;;;18.10;62.40;;;;;;4792419;29;20051;-80
2021/04/04 11:21:24;;;;;;;2.80;1.10;;;17.90;62.20;;;;;;4797015;29;20061;-80
2021/04/04 11:23:53;;;;;;;1.67;0.80;;;18.10;61.30;;;;;;4807529;29;20046;-78
2021/04/04 11:26:25;;;;;;;4.25;1.52;;;18.40;61.10;;;;;;4793425;29;20133;-78
2021/04/04 11:29:09;;;;;;;2.58;1.23;;;18.50;61.60;;;;;;4806021;29;20047;-79
2021/04/04 11:31:36;;;;;;;4.47;2.65;;;18.30;61.20;;;;;;4804217;29;20050;-79
2021/04/04 11:34:29;;;;;;;3.25;1.60;;;18.30;61.50;;;;;;4803215;29;20051;-79
2021/04/04 11:36:59;;;;;;;2.65;1.00;;;18.30;60.40;;;;;;4803047;29;20051;-78
2021/04/04 11:39:26;;;;;;;2.55;1.15;;;18.40;60.80;;;;;;4794409;29;20146;-80
2021/04/04 11:41:56;;;;;;;2.40;0.90;;;18.60;59.70;;;;;;4808114;29;20039;-79
2021/04/04 11:44:32;;;;;;;3.33;0.90;;;18.60;59.50;;;;;;4798098;29;20058;-80
2021/04/04 11:47:00;;;;;;;2.47;0.90;;;18.70;59.80;;;;;;4794389;29;20603;-79
2021/04/04 11:49:43;;;;;;;3.75;1.15;;;18.60;60.10;;;;;;4807555;29;20045;-76
2021/04/04 11:52:47;;;;;;;7.32;3.92;;;18.40;59.80;;;;;;4805303;29;20055;-77
2021/04/04 11:55:17;;;;;;;4.28;2.22;;;18.50;60.50;;;;;;4806097;29;20054;-77
2021/04/04 11:57:46;;;;;;;2.55;1.08;;;18.80;60.80;;;;;;4804972;29;20046;-76
2021/04/04 12:00:16;;;;;;;2.25;0.93;;;18.90;59.10;;;;;;4780786;29;20054;-76
2021/04/04 12:03:05;;;;;;;1.70;0.70;;;19.00;59.30;;;;;;4793942;29;20043;-77
2021/04/04 12:05:36;;;;;;;2.50;0.93;;;19.10;59.40;;;;;;4793434;29;20608;-77
2021/04/04 12:08:05;;;;;;;1.25;0.68;;;19.30;59.00;;;;;;4807668;29;20047;-76
2021/04/04 12:10:35;;;;;;;3.20;0.80;;;19.40;58.20;;;;;;4802447;29;20456;-75
2021/04/04 12:13:03;;;;;;;2.20;0.70;;;19.30;57.60;;;;;;4789093;29;20050;-75
2021/04/04 12:15:30;;;;;;;1.77;0.55;;;19.40;57.80;;;;;;4791818;29;20047;-75
2021/04/04 12:17:59;;;;;;;0.95;0.60;;;19.30;57.30;;;;;;4793705;29;20111;-75
2021/04/04 12:20:27;;;;;;;2.67;0.60;;;19.40;57.50;;;;;;4792874;29;20466;-74
2021/04/04 12:22:55;;;;;;;1.25;0.47;;;19.40;56.70;;;;;;4791857;29;20054;-75
2021/04/04 12:25:23;;;;;;;3.35;0.65;;;19.40;56.90;;;;;;4794398;29;20209;-78
2021/04/04 12:27:53;;;;;;;3.97;0.60;;;19.60;57.20;;;;;;4793053;29;20051;-77
2021/04/04 12:30:26;;;;;;;2.42;0.55;;;19.40;56.50;;;;;;4789731;29;20054;-78
2021/04/04 12:33:05;;;;;;;2.92;0.57;;;19.20;56.50;;;;;;4790724;29;20047;-78
2021/04/04 12:35:34;;;;;;;2.65;0.60;;;19.10;56.30;;;;;;4802956;29;20077;-76
2021/04/04 12:38:02;;;;;;;1.48;0.63;;;19.30;57.10;;;;;;4790824;29;20137;-77
2021/04/04 12:40:30;;;;;;;1.55;0.65;;;19.50;57.40;;;;;;4805978;29;20130;-78
2021/04/04 12:43:00;;;;;;;2.80;0.65;;;19.70;56.40;;;;;;4804029;29;20078;-77
2021/04/04 12:45:33;;;;;;;0.90;0.55;;;19.70;56.60;;;;;;4792334;29;20046;-77
2021/04/04 12:48:00;;;;;;;2.40;0.85;;;19.50;56.10;;;;;;4795449;29;20070;-78
2021/04/04 12:50:28;;;;;;;2.03;0.95;;;19.80;56.50;;;;;;4791908;29;20297;-78
2021/04/04 12:52:56;;;;;;;2.05;0.60;;;19.90;55.90;;;;;;4792898;29;20051;-78
2021/04/04 12:55:26;;;;;;;2.03;0.65;;;19.90;55.60;;;;;;4790368;29;20054;-79
2021/04/04 12:57:59;;;;;;;2.38;0.82;;;20.10;55.80;;;;;;4793489;29;20471;-79
2021/04/04 13:00:28;;;;;;;1.40;0.60;;;19.90;55.00;;;;;;4791196;29;20039;-78
2021/04/04 13:03:04;;;;;;;3.58;0.80;;;20.00;55.60;;;;;;4790967;29;20381;-78
2021/04/04 13:05:35;;;;;;;3.38;0.95;;;20.10;55.20;;;;;;4806589;29;20498;-75
2021/04/04 13:08:10;;;;;;;1.80;0.88;;;20.20;55.10;;;;;;4791668;29;20055;-75
2021/04/04 13:10:38;;;;;;;1.27;0.63;;;20.20;54.60;;;;;;4791497;29;20051;-75
2021/04/04 13:13:11;;;;;;;1.77;0.63;;;20.20;54.60;;;;;;4792591;29;20218;-76
2021/04/04 13:15:39;;;;;;;1.60;0.75;;;20.30;55.10;;;;;;4792683;29;20058;-76